createdAt,value
2017-08-22T00:02:22.430Z,5.53
2017-08-22T00:04:49.996Z,6.13
2017-08-22T00:07:17.527Z,6.37
2017-08-22T00:09:45.093Z,6.17
2017-08-22T00:12:12.664Z,5.50
2017-08-22T00:14:40.207Z,5.93
2017-08-22T00:17:07.827Z,6.07
2017-08-22T00:19:35.371Z,6.80
2017-08-22T00:22:02.960Z,6.80
2017-08-22T00:24:30.512Z,6.17
2017-08-22T00:26:58.098Z,7.50
2017-08-22T00:29:25.611Z,7.83
2017-08-22T00:31:53.150Z,7.57
2017-08-22T00:34:20.735Z,6.60
2017-08-22T00:36:48.293Z,7.17
2017-08-22T00:39:15.829Z,7.33
2017-08-22T00:41:43.983Z,7.03
2017-08-22T00:44:11.555Z,7.10
2017-08-22T00:46:39.089Z,7.37
2017-08-22T00:49:06.648Z,6.40
2017-08-22T00:51:34.244Z,6.83
2017-08-22T00:54:01.937Z,6.90
2017-08-22T00:56:29.527Z,6.73
2017-08-22T00:58:57.058Z,8.03
2017-08-22T01:01:24.621Z,8.67
2017-08-22T01:03:52.192Z,7.80
2017-08-22T01:06:19.790Z,7.00
2017-08-22T01:08:47.362Z,6.20
2017-08-22T01:11:14.939Z,7.63
2017-08-22T01:13:42.538Z,7.40
2017-08-22T01:16:10.105Z,8.40
2017-08-22T01:18:37.688Z,7.33
2017-08-22T01:21:05.257Z,7.87
2017-08-22T01:23:32.859Z,7.97
2017-08-22T01:26:00.451Z,7.90
2017-08-22T01:28:28.027Z,7.70
2017-08-22T01:30:55.608Z,8.10
2017-08-22T01:33:25.720Z,7.30
2017-08-22T01:35:53.316Z,7.27
2017-08-22T01:38:20.859Z,6.60
2017-08-22T01:40:48.430Z,7.03
2017-08-22T01:43:16.010Z,6.83
2017-08-22T01:45:43.597Z,7.40
2017-08-22T01:48:11.194Z,6.77
2017-08-22T01:50:38.780Z,7.50
2017-08-22T01:53:06.321Z,6.50
2017-08-22T01:55:33.898Z,7.73
2017-08-22T01:58:01.447Z,7.10
2017-08-22T02:00:28.989Z,7.50
2017-08-22T02:02:56.580Z,7.50
2017-08-22T02:05:24.122Z,7.03
2017-08-22T02:07:51.678Z,7.10
2017-08-22T02:10:19.233Z,8.07
2017-08-22T02:12:46.755Z,7.47
2017-08-22T02:15:14.288Z,7.03
2017-08-22T02:17:41.875Z,6.70
2017-08-22T02:20:09.454Z,8.30
2017-08-22T02:22:36.999Z,7.13
2017-08-22T02:25:04.569Z,7.60
2017-08-22T02:27:32.122Z,7.80
2017-08-22T02:30:00.450Z,7.47
2017-08-22T02:32:27.984Z,7.80
2017-08-22T02:34:55.952Z,8.13
2017-08-22T02:37:23.515Z,7.93
2017-08-22T02:39:51.096Z,7.40
2017-08-22T02:42:18.654Z,7.03
2017-08-22T02:44:46.217Z,6.93
2017-08-22T02:47:15.021Z,7.63
2017-08-22T02:49:42.575Z,7.57
2017-08-22T02:52:10.147Z,8.63
2017-08-22T02:54:37.702Z,7.77
2017-08-22T02:57:05.273Z,7.40
2017-08-22T02:59:32.793Z,7.73
2017-08-22T03:02:00.378Z,9.50
2017-08-22T03:04:27.915Z,8.40
2017-08-22T03:06:56.491Z,8.60
2017-08-22T03:09:24.051Z,8.23
2017-08-22T03:11:51.640Z,7.60
2017-08-22T03:14:19.194Z,8.37
2017-08-22T03:16:46.740Z,8.57
2017-08-22T03:19:14.343Z,8.30
2017-08-22T03:21:41.899Z,7.97
2017-08-22T03:24:09.475Z,8.27
2017-08-22T03:26:37.014Z,7.40
2017-08-22T03:29:04.579Z,8.47
2017-08-22T03:31:32.153Z,8.40
2017-08-22T03:33:59.666Z,8.27
2017-08-22T03:36:27.250Z,7.80
2017-08-22T03:38:54.835Z,9.00
2017-08-22T03:41:22.396Z,8.70
2017-08-22T03:43:49.930Z,8.87
2017-08-22T03:46:17.507Z,7.83
2017-08-22T03:48:45.500Z,9.20
2017-08-22T03:51:13.105Z,9.47
2017-08-22T03:53:40.681Z,9.20
2017-08-22T03:56:08.324Z,8.97
2017-08-22T03:58:35.867Z,8.37
2017-08-22T04:01:03.421Z,7.83
2017-08-22T04:03:31.018Z,8.20
2017-08-22T04:05:58.577Z,7.93
2017-08-22T04:08:26.172Z,8.33
2017-08-22T04:10:53.717Z,7.40
2017-08-22T04:13:21.273Z,8.13
2017-08-22T04:15:48.842Z,7.80
2017-08-22T04:18:16.402Z,8.43
2017-08-22T04:20:43.971Z,8.37
2017-08-22T04:23:11.501Z,7.03
2017-08-22T04:25:39.066Z,8.50
2017-08-22T04:28:07.216Z,7.10
2017-08-22T04:30:34.760Z,7.40
2017-08-22T04:33:02.335Z,8.30
2017-08-22T04:35:29.869Z,8.13
2017-08-22T04:37:57.435Z,8.83
2017-08-22T04:40:24.992Z,8.83
2017-08-22T04:42:52.529Z,9.27
2017-08-22T04:45:20.092Z,8.33
2017-08-22T04:47:47.623Z,8.40
2017-08-22T04:50:15.156Z,8.53
2017-08-22T04:52:42.683Z,8.40
2017-08-22T04:55:10.238Z,7.70
2017-08-22T04:57:37.774Z,6.87
2017-08-22T05:00:05.343Z,7.27
2017-08-22T05:02:32.885Z,7.50
2017-08-22T05:05:00.445Z,7.77
2017-08-22T05:07:27.993Z,8.13
2017-08-22T05:09:55.538Z,8.13
2017-08-22T05:12:23.098Z,7.23
2017-08-22T05:14:50.623Z,7.17
2017-08-22T05:17:18.205Z,6.63
2017-08-22T05:19:45.745Z,7.40
2017-08-22T05:22:13.302Z,7.15
2017-08-22T05:24:40.855Z,6.83
2017-08-22T05:27:08.403Z,5.77
2017-08-22T05:29:35.940Z,5.93
2017-08-22T05:32:03.487Z,7.20
2017-08-22T05:34:31.062Z,7.10
2017-08-22T05:36:58.580Z,6.23
2017-08-22T05:39:26.135Z,5.60
2017-08-22T05:41:53.807Z,6.90
2017-08-22T05:44:21.351Z,7.50
2017-08-22T05:46:48.895Z,6.40
2017-08-22T05:49:16.481Z,6.47
2017-08-22T05:51:44.040Z,6.83
2017-08-22T05:54:11.610Z,6.13
2017-08-22T05:56:39.177Z,6.07
2017-08-22T05:59:06.757Z,6.20
2017-08-22T06:01:34.309Z,6.00
2017-08-22T06:04:01.841Z,5.80
2017-08-22T06:06:29.390Z,5.30
2017-08-22T06:08:56.927Z,5.20
2017-08-22T06:11:24.464Z,5.23
2017-08-22T06:13:52.031Z,5.90
2017-08-22T06:16:19.567Z,5.10
2017-08-22T06:18:47.103Z,5.33
2017-08-22T06:21:14.683Z,5.10
2017-08-22T06:23:42.236Z,4.93
2017-08-22T06:26:09.811Z,5.07
2017-08-22T06:28:37.370Z,5.60
2017-08-22T06:31:04.901Z,6.10
2017-08-22T06:33:32.460Z,5.70
2017-08-22T06:36:00.047Z,5.90
2017-08-22T06:38:27.594Z,5.63
2017-08-22T06:40:55.167Z,5.53
2017-08-22T06:43:22.726Z,5.60
2017-08-22T06:45:50.301Z,5.37
2017-08-22T06:48:17.840Z,4.90
2017-08-22T06:50:45.395Z,5.60
2017-08-22T06:53:12.996Z,4.90
2017-08-22T06:55:40.581Z,4.13
2017-08-22T06:58:08.160Z,4.50
2017-08-22T07:00:35.728Z,4.90
2017-08-22T07:03:03.281Z,5.07
2017-08-22T07:05:30.838Z,4.67
2017-08-22T07:07:58.393Z,4.53
2017-08-22T07:10:25.948Z,4.77
2017-08-22T07:12:53.498Z,4.93
2017-08-22T07:15:21.065Z,4.40
2017-08-22T07:17:48.608Z,4.27
2017-08-22T07:20:16.159Z,4.60
2017-08-22T07:22:44.033Z,4.53
2017-08-22T07:25:11.569Z,5.70
2017-08-22T07:27:39.141Z,4.07
2017-08-22T07:30:06.703Z,5.80
2017-08-22T07:32:34.256Z,4.87
2017-08-22T07:35:02.039Z,5.87
2017-08-22T07:37:29.567Z,5.77
2017-08-22T07:39:57.124Z,5.30
2017-08-22T07:42:24.803Z,5.40
2017-08-22T07:44:52.376Z,5.57
2017-08-22T07:47:19.910Z,5.40
2017-08-22T07:49:47.480Z,5.27
2017-08-22T07:52:15.311Z,5.10
2017-08-22T07:54:42.876Z,4.83
2017-08-22T07:57:10.494Z,5.83
2017-08-22T07:59:38.054Z,6.03
2017-08-22T08:02:06.207Z,5.20
2017-08-22T08:04:33.781Z,5.03
2017-08-22T08:07:01.320Z,4.67
2017-08-22T08:09:28.978Z,4.90
2017-08-22T08:11:56.546Z,4.30
2017-08-22T08:14:24.144Z,3.80
2017-08-22T08:16:51.692Z,3.93
2017-08-22T08:19:19.252Z,3.90
2017-08-22T08:21:46.847Z,4.30
2017-08-22T08:25:45.609Z,3.67
2017-08-22T08:28:14.492Z,4.63
2017-08-22T08:30:42.073Z,3.60
2017-08-22T08:33:10.601Z,4.20
2017-08-22T08:35:38.174Z,3.67
2017-08-22T08:38:05.756Z,4.10
2017-08-22T08:40:33.361Z,4.80
2017-08-22T08:43:00.926Z,3.63
2017-08-22T08:45:28.482Z,3.70
2017-08-22T08:47:56.336Z,4.33
2017-08-22T08:50:23.899Z,4.40
2017-08-22T08:52:51.467Z,4.27
2017-08-22T08:55:19.028Z,4.50
2017-08-22T08:57:46.613Z,3.60
2017-08-22T09:00:14.157Z,4.57
2017-08-22T09:02:41.720Z,4.50
2017-08-22T09:05:09.322Z,4.27
2017-08-22T09:07:36.856Z,3.87
2017-08-22T09:10:04.420Z,3.77
2017-08-22T09:12:31.996Z,3.40
2017-08-22T09:14:59.695Z,3.60
2017-08-22T09:17:27.309Z,4.07
2017-08-22T09:19:54.895Z,4.50
2017-08-22T09:22:22.454Z,4.57
2017-08-22T09:24:50.083Z,3.97
2017-08-22T09:27:17.672Z,4.20
2017-08-22T09:29:45.207Z,4.40
2017-08-22T09:32:12.795Z,4.63
2017-08-22T09:34:40.372Z,3.57
2017-08-22T09:37:07.932Z,4.20
2017-08-22T09:39:35.490Z,4.30
2017-08-22T09:42:03.031Z,3.83
2017-08-22T09:44:30.591Z,3.90
2017-08-22T09:46:58.153Z,3.63
2017-08-22T09:49:25.744Z,3.60
2017-08-22T09:51:53.306Z,3.80
2017-08-22T09:54:20.840Z,4.60
2017-08-22T09:56:48.413Z,4.20
2017-08-22T09:59:16.001Z,4.23
2017-08-22T10:01:43.531Z,4.50
2017-08-22T10:04:11.088Z,3.80
2017-08-22T10:06:38.719Z,3.60
2017-08-22T10:09:06.269Z,3.70
2017-08-22T10:11:33.810Z,3.73
2017-08-22T10:14:01.393Z,4.10
2017-08-22T10:16:28.931Z,4.03
2017-08-22T10:18:56.493Z,5.60
2017-08-22T10:21:24.031Z,4.20
2017-08-22T10:23:51.592Z,6.40
2017-08-22T10:26:20.383Z,4.10
2017-08-22T10:28:48.202Z,10.67
2017-08-22T10:31:15.849Z,4.00
2017-08-22T10:33:43.494Z,3.93
2017-08-22T10:36:11.200Z,4.13
2017-08-22T10:38:38.806Z,4.10
2017-08-22T10:41:06.492Z,4.17
2017-08-22T10:43:34.041Z,3.80
2017-08-22T10:46:01.803Z,4.50
2017-08-22T10:48:30.248Z,3.50
2017-08-22T10:50:57.848Z,4.70
2017-08-22T10:53:25.613Z,4.07
2017-08-22T10:55:53.172Z,4.10
2017-08-22T10:58:20.699Z,3.90
2017-08-22T11:00:48.252Z,3.70
2017-08-22T11:03:15.800Z,4.00
2017-08-22T11:05:43.418Z,4.27
2017-08-22T11:08:10.990Z,4.40
2017-08-22T11:10:38.563Z,3.90
2017-08-22T11:13:06.093Z,4.40
2017-08-22T11:15:33.716Z,4.70
2017-08-22T11:18:01.264Z,4.60
2017-08-22T11:20:28.809Z,4.57
2017-08-22T11:22:57.387Z,3.80
2017-08-22T11:25:24.929Z,4.00
2017-08-22T11:27:53.500Z,3.80
2017-08-22T11:30:21.066Z,3.83
2017-08-22T11:32:48.623Z,3.60
2017-08-22T11:35:16.189Z,3.80
2017-08-22T11:37:43.734Z,4.40
2017-08-22T11:40:11.261Z,3.50
2017-08-22T11:42:38.833Z,4.17
2017-08-22T11:45:06.378Z,3.73
2017-08-22T11:47:33.929Z,4.13
2017-08-22T11:50:01.509Z,4.00
2017-08-22T11:52:29.073Z,3.43
2017-08-22T11:54:56.629Z,4.03
2017-08-22T11:57:24.224Z,3.90
2017-08-22T11:59:51.839Z,3.70
2017-08-22T12:02:19.646Z,4.67
2017-08-22T12:04:47.219Z,3.70
2017-08-22T12:07:14.818Z,4.40
2017-08-22T12:09:42.451Z,3.80
2017-08-22T12:12:10.051Z,3.83
2017-08-22T12:14:37.591Z,4.20
2017-08-22T12:17:05.138Z,3.80
2017-08-22T12:19:32.728Z,3.57
2017-08-22T12:22:00.516Z,4.50
2017-08-22T12:24:28.256Z,3.60
2017-08-22T12:26:55.881Z,3.87
2017-08-22T12:29:23.461Z,4.10
2017-08-22T12:31:51.046Z,3.37
2017-08-22T12:34:18.608Z,4.27
2017-08-22T12:36:46.155Z,3.77
2017-08-22T12:39:13.688Z,4.07
2017-08-22T12:41:42.195Z,3.77
2017-08-22T12:44:09.727Z,4.80
2017-08-22T12:46:37.275Z,3.77
2017-08-22T12:49:04.851Z,4.17
2017-08-22T12:51:32.459Z,4.20
2017-08-22T12:54:00.026Z,3.87
2017-08-22T12:56:28.464Z,4.10
2017-08-22T12:58:56.288Z,3.83
2017-08-22T13:01:24.924Z,3.63
2017-08-22T13:03:52.618Z,4.83
2017-08-22T13:06:20.234Z,4.03
2017-08-22T13:08:47.761Z,3.33
2017-08-22T13:11:15.611Z,3.60
2017-08-22T13:13:43.175Z,3.50
2017-08-22T13:16:10.997Z,4.50
2017-08-22T13:18:38.587Z,4.00
2017-08-22T13:21:07.435Z,3.90
2017-08-22T13:23:35.924Z,4.37
2017-08-22T13:26:03.619Z,4.10
2017-08-22T13:28:32.360Z,4.10
2017-08-22T13:31:00.990Z,3.63
2017-08-22T13:33:28.796Z,4.30
2017-08-22T13:35:56.368Z,3.63
2017-08-22T13:38:24.932Z,3.63
2017-08-22T13:40:52.738Z,3.90
2017-08-22T13:43:21.367Z,3.60
2017-08-22T13:45:50.030Z,3.40
2017-08-22T13:48:17.737Z,3.93
2017-08-22T13:50:45.402Z,4.03
2017-08-22T13:53:13.250Z,3.87
2017-08-22T13:55:41.309Z,3.67
2017-08-22T13:58:08.941Z,4.13
2017-08-22T14:00:36.506Z,4.20
2017-08-22T14:03:05.831Z,4.40
2017-08-22T14:05:33.498Z,3.80
2017-08-22T14:08:01.198Z,4.77
2017-08-22T14:10:28.746Z,3.90
2017-08-22T14:12:56.310Z,3.80
2017-08-22T14:15:23.907Z,3.70
2017-08-22T14:17:51.650Z,3.90
2017-08-22T14:20:19.970Z,3.70
2017-08-22T14:22:47.592Z,3.80
2017-08-22T14:25:15.215Z,3.80
2017-08-22T14:27:42.963Z,3.47
2017-08-22T14:30:10.657Z,3.50
2017-08-22T14:32:38.231Z,3.70
2017-08-22T14:35:05.747Z,4.40
2017-08-22T14:37:33.605Z,3.70
2017-08-22T14:40:01.533Z,4.10
2017-08-22T14:42:29.151Z,3.70
2017-08-22T14:44:56.810Z,3.80
2017-08-22T14:47:24.752Z,3.60
2017-08-22T14:49:52.584Z,4.30
2017-08-22T14:52:20.299Z,3.43
2017-08-22T14:54:47.986Z,4.07
2017-08-22T14:57:15.755Z,3.30
2017-08-22T14:59:43.640Z,4.27
2017-08-22T15:02:11.384Z,3.90
2017-08-22T15:04:39.179Z,3.70
2017-08-22T15:07:09.266Z,3.90
2017-08-22T15:09:36.840Z,3.87
2017-08-22T15:12:04.354Z,3.60
2017-08-22T15:14:31.910Z,4.17
2017-08-22T15:16:59.464Z,4.00
2017-08-22T15:19:27.060Z,4.33
2017-08-22T15:21:54.590Z,4.53
2017-08-22T15:24:22.121Z,4.27
2017-08-22T15:26:50.513Z,4.00
2017-08-22T15:29:18.090Z,3.83
2017-08-22T15:31:45.700Z,3.87
2017-08-22T15:34:14.200Z,3.90
2017-08-22T15:36:41.834Z,3.70
2017-08-22T15:39:09.392Z,4.00
2017-08-22T15:41:36.933Z,3.63
2017-08-22T15:44:04.495Z,3.80
2017-08-22T15:46:32.050Z,3.87
2017-08-22T15:48:59.594Z,3.93
2017-08-22T15:51:27.175Z,3.90
2017-08-22T15:53:54.749Z,4.50
2017-08-22T15:56:22.306Z,3.80
2017-08-22T15:58:49.853Z,4.10
2017-08-22T16:01:17.870Z,4.20
2017-08-22T16:03:45.457Z,3.83
2017-08-22T16:06:12.997Z,3.83
2017-08-22T16:08:41.286Z,3.83
2017-08-22T16:11:08.853Z,4.57
2017-08-22T16:13:36.394Z,3.60
2017-08-22T16:16:03.961Z,4.23
2017-08-22T16:18:31.525Z,3.40
2017-08-22T16:20:59.236Z,3.87
2017-08-22T16:23:26.818Z,3.80
2017-08-22T16:25:54.381Z,3.80
2017-08-22T16:28:21.957Z,3.60
2017-08-22T16:30:49.533Z,4.00
2017-08-22T16:33:17.086Z,3.60
2017-08-22T16:35:44.667Z,3.20
2017-08-22T16:38:12.246Z,3.20
2017-08-22T16:40:39.845Z,3.90
2017-08-22T16:43:07.487Z,3.53
2017-08-22T16:45:35.476Z,3.10
2017-08-22T16:48:03.013Z,3.60
2017-08-22T16:50:30.574Z,3.40
2017-08-22T16:52:58.187Z,2.93
2017-08-22T16:55:25.736Z,2.80
2017-08-22T16:57:53.284Z,3.17
2017-08-22T17:00:20.866Z,3.50
2017-08-22T17:02:48.640Z,3.30
2017-08-22T17:05:16.376Z,3.40
2017-08-22T17:07:44.140Z,3.50
2017-08-22T17:10:11.679Z,3.70
2017-08-22T17:12:39.236Z,3.73
2017-08-22T17:15:06.980Z,3.10
2017-08-22T17:17:34.699Z,3.60
2017-08-22T17:20:02.593Z,3.30
2017-08-22T17:22:30.162Z,2.93
2017-08-22T17:24:58.925Z,2.90
2017-08-22T17:27:26.958Z,3.43
2017-08-22T17:29:54.675Z,2.70
2017-08-22T17:32:22.344Z,2.97
2017-08-22T17:34:49.976Z,3.40
2017-08-22T17:37:17.749Z,3.50
2017-08-22T17:39:45.534Z,3.40
2017-08-22T17:42:14.396Z,3.20
2017-08-22T17:44:41.976Z,3.17
2017-08-22T17:47:09.525Z,3.40
2017-08-22T17:49:37.331Z,3.20
2017-08-22T17:52:04.927Z,3.10
2017-08-22T17:54:32.743Z,3.03
2017-08-22T17:57:00.369Z,3.67
2017-08-22T17:59:28.198Z,3.50
2017-08-22T18:01:55.773Z,3.67
2017-08-22T18:04:23.357Z,3.10
2017-08-22T18:06:51.185Z,3.07
2017-08-22T18:09:18.791Z,3.80
2017-08-22T18:11:47.220Z,2.90
2017-08-22T18:14:14.881Z,3.33
2017-08-22T18:16:42.487Z,3.33
2017-08-22T18:19:10.057Z,3.30
2017-08-22T18:21:37.632Z,2.77
2017-08-22T18:24:05.553Z,3.27
2017-08-22T18:26:33.091Z,3.20
2017-08-22T18:29:00.801Z,2.77
2017-08-22T18:31:28.615Z,3.30
2017-08-22T18:33:57.481Z,3.17
2017-08-22T18:36:25.140Z,3.30
2017-08-22T18:38:52.709Z,3.20
2017-08-22T18:41:20.298Z,3.20
2017-08-22T18:43:47.998Z,3.70
2017-08-22T18:46:15.716Z,3.20
2017-08-22T18:48:43.303Z,3.07
2017-08-22T18:51:12.401Z,2.87
2017-08-22T18:53:39.960Z,3.00
2017-08-22T18:56:08.164Z,3.20
2017-08-22T18:58:36.159Z,3.80
2017-08-22T19:01:03.968Z,3.00
2017-08-22T19:03:34.096Z,3.40
2017-08-22T19:06:01.813Z,3.93
2017-08-22T19:08:29.484Z,4.40
2017-08-22T19:10:57.152Z,4.80
2017-08-22T19:14:02.800Z,4.20
2017-08-22T19:16:33.284Z,3.80
2017-08-22T19:19:00.902Z,3.93
2017-08-22T19:21:28.880Z,4.30
2017-08-22T19:23:56.421Z,3.70
2017-08-22T19:26:23.992Z,3.87
2017-08-22T19:28:51.564Z,3.57
2017-08-22T19:31:19.295Z,3.73
2017-08-22T19:33:46.861Z,3.93
2017-08-22T19:36:14.401Z,4.00
2017-08-22T19:38:41.921Z,3.60
2017-08-22T19:41:09.501Z,4.07
2017-08-22T19:43:37.219Z,4.30
2017-08-22T19:46:04.799Z,5.23
2017-08-22T19:48:32.431Z,4.53
2017-08-22T19:51:00.402Z,4.17
2017-08-22T19:53:28.268Z,4.23
2017-08-22T19:55:56.035Z,4.30
2017-08-22T19:58:23.622Z,5.90
2017-08-22T20:00:51.379Z,4.47
2017-08-22T20:03:18.982Z,4.97
2017-08-22T20:05:46.556Z,3.67
2017-08-22T20:08:15.135Z,4.50
2017-08-22T20:10:42.694Z,4.73
2017-08-22T20:13:10.278Z,4.80
2017-08-22T20:15:37.897Z,4.27
2017-08-22T20:18:05.581Z,4.17
2017-08-22T20:20:33.152Z,6.33
2017-08-22T20:23:00.750Z,5.17
2017-08-22T20:25:28.322Z,5.27
2017-08-22T20:27:56.075Z,5.27
2017-08-22T20:30:23.703Z,4.80
2017-08-22T20:32:51.407Z,5.30
2017-08-22T20:35:19.019Z,5.97
2017-08-22T20:37:46.826Z,7.00
2017-08-22T20:40:14.401Z,5.70
2017-08-22T20:42:41.913Z,5.77
2017-08-22T20:45:09.489Z,6.53
2017-08-22T20:47:37.028Z,5.53
2017-08-22T20:50:04.569Z,5.70
2017-08-22T20:52:32.143Z,5.30
2017-08-22T20:54:59.682Z,6.30
2017-08-22T20:57:27.411Z,6.10
2017-08-22T20:59:55.027Z,6.63
2017-08-22T21:02:23.035Z,6.27
2017-08-22T21:04:50.845Z,7.10
2017-08-22T21:07:18.526Z,7.17
2017-08-22T21:09:46.060Z,5.20
2017-08-22T21:12:13.873Z,5.43
2017-08-22T21:14:41.724Z,6.00
2017-08-22T21:17:09.517Z,5.70
2017-08-22T21:19:37.275Z,5.50
2017-08-22T21:22:05.900Z,4.87
2017-08-22T21:24:33.669Z,6.10
2017-08-22T21:27:01.482Z,5.10
2017-08-22T21:29:29.073Z,5.70
2017-08-22T21:31:56.818Z,6.23
2017-08-22T21:34:24.387Z,6.03
2017-08-22T21:36:51.933Z,6.20
2017-08-22T21:39:19.688Z,6.00
2017-08-22T21:41:47.394Z,6.20
2017-08-22T21:44:15.037Z,6.33
2017-08-22T21:46:42.919Z,5.07
2017-08-22T21:49:11.423Z,5.47
2017-08-22T21:51:38.976Z,6.40
2017-08-22T21:54:06.583Z,5.80
2017-08-22T21:56:34.216Z,6.50
2017-08-22T21:59:01.810Z,5.83
2017-08-22T22:01:31.568Z,5.40
2017-08-22T22:03:59.104Z,6.80
2017-08-22T22:06:26.655Z,5.27
2017-08-22T22:08:54.174Z,7.03
2017-08-22T22:11:22.813Z,6.27
2017-08-22T22:13:50.398Z,7.20
2017-08-22T22:16:18.295Z,6.30
2017-08-22T22:18:45.869Z,6.53
2017-08-22T22:21:13.438Z,6.17
2017-08-22T22:23:41.007Z,6.97
2017-08-22T22:26:08.600Z,7.03
2017-08-22T22:28:36.157Z,5.90
2017-08-22T22:31:03.695Z,5.90
2017-08-22T22:33:31.263Z,6.13
2017-08-22T22:35:58.802Z,5.77
2017-08-22T22:38:26.328Z,5.90
2017-08-22T22:40:53.876Z,6.33
2017-08-22T22:43:21.442Z,6.20
2017-08-22T22:45:48.998Z,6.00
2017-08-22T22:48:16.925Z,7.23
2017-08-22T22:50:44.442Z,6.03
2017-08-22T22:53:11.977Z,6.20
2017-08-22T22:55:39.561Z,5.70
2017-08-22T22:58:07.137Z,6.80
2017-08-22T23:00:34.666Z,6.50
2017-08-22T23:03:02.189Z,7.13
2017-08-22T23:05:29.753Z,6.93
2017-08-22T23:07:57.304Z,6.17
2017-08-22T23:10:24.872Z,6.40
2017-08-22T23:12:52.418Z,7.90
2017-08-22T23:15:19.975Z,6.60
2017-08-22T23:17:47.556Z,7.40
2017-08-22T23:20:15.091Z,6.57
2017-08-22T23:22:42.655Z,6.67
2017-08-22T23:25:10.224Z,6.70
2017-08-22T23:27:37.780Z,6.47
2017-08-22T23:30:05.378Z,6.90
2017-08-22T23:32:32.907Z,6.33
2017-08-22T23:35:00.445Z,7.30
2017-08-22T23:37:28.015Z,7.00
2017-08-22T23:39:55.551Z,7.80
2017-08-22T23:42:23.122Z,8.07
2017-08-22T23:44:50.654Z,7.70
2017-08-22T23:47:18.259Z,7.30
2017-08-22T23:49:45.885Z,6.60
2017-08-22T23:52:13.500Z,7.97
2017-08-22T23:54:41.099Z,7.03
2017-08-22T23:57:08.715Z,6.80
2017-08-22T23:59:36.313Z,7.80
